Time,TemperatureF,DewpointF,PressureIn,WindDirection,WindDirectionDegrees,WindSpeedMPH,WindSpeedGustMPH,Humidity,HourlyPrecipIn,Conditions,Clouds,dailyrainin,SolarRadiationWatts/m^2,SoftwareType,DateUTC
2013-03-09 00:02:00,36.6,33.7,29.90,SW,219,6.0,6.0,89,0.00,,,0.00,0,Wunderground v.1.15,2013-03-09 07:02:00,
2013-03-09 00:08:00,36.4,33.5,29.91,SW,233,6.0,6.0,89,0.00,,,0.00,0,Wunderground v.1.15,2013-03-09 07:08:00,
2013-03-09 00:14:00,36.4,33.7,29.91,WSW,242,5.0,8.0,90,0.00,,,0.00,0,Wunderground v.1.15,2013-03-09 07:14:00,
2013-03-09 00:20:00,37.2,34.0,29.91,WSW,244,6.0,7.0,88,0.00,,,0.00,0,Wunderground v.1.15,2013-03-09 07:20:00,
2013-03-09 00:26:00,37.7,33.6,29.91,WSW,251,8.0,10.0,85,0.00,,,0.00,0,Wunderground v.1.15,2013-03-09 07:26:00,
2013-03-09 00:32:00,38.1,33.7,29.91,WSW,255,9.0,9.0,84,0.00,,,0.00,0,Wunderground v.1.15,2013-03-09 07:32:00,
2013-03-09 00:38:00,38.5,33.8,29.91,WSW,252,10.0,12.0,83,0.00,,,0.00,0,Wunderground v.1.15,2013-03-09 07:38:00,
2013-03-09 00:44:00,38.5,33.8,29.92,WSW,257,10.0,11.0,83,0.00,,,0.00,0,Wunderground v.1.15,2013-03-09 07:44:00,
2013-03-09 00:50:00,38.6,33.6,29.92,SW,236,11.0,11.0,82,0.00,,,0.00,0,Wunderground v.1.15,2013-03-09 07:50:00,
2013-03-09 00:56:00,38.6,33.3,29.92,West,269,13.0,17.0,81,0.00,,,0.00,0,Wunderground v.1.15,2013-03-09 07:56:00,
2013-03-09 01:02:00,38.4,32.8,29.91,West,278,13.0,21.0,80,0.00,,,0.00,0,Wunderground v.1.15,2013-03-09 08:02:00,
2013-03-09 01:08:00,38.5,32.6,29.91,West,262,14.0,21.0,79,0.00,,,0.01,0,Wunderground v.1.15,2013-03-09 08:08:00,
2013-03-09 01:14:00,38.2,32.3,29.91,West,261,14.0,15.0,79,0.00,,,0.01,0,Wunderground v.1.15,2013-03-09 08:14:00,
2013-03-09 01:20:00,38.1,32.2,29.91,West,265,14.0,17.0,79,0.00,,,0.01,0,Wunderground v.1.15,2013-03-09 08:20:00,
2013-03-09 01:26:00,38.0,32.1,29.92,West,274,13.0,17.0,79,0.00,,,0.01,0,Wunderground v.1.15,2013-03-09 08:26:00,
2013-03-09 01:32:00,38.0,32.1,29.92,West,263,13.0,15.0,79,0.00,,,0.01,0,Wunderground v.1.15,2013-03-09 08:32:00,
2013-03-09 01:38:00,38.0,32.1,29.92,WSW,248,13.0,15.0,79,0.00,,,0.01,0,Wunderground v.1.15,2013-03-09 08:38:00,
2013-03-09 01:44:00,38.0,32.1,29.93,WSW,247,13.0,13.0,79,0.00,,,0.01,0,Wunderground v.1.15,2013-03-09 08:44:00,
2013-03-09 01:50:00,37.8,31.9,29.92,WSW,245,11.0,11.0,79,0.00,,,0.01,0,Wunderground v.1.15,2013-03-09 08:50:00,
2013-03-09 01:56:00,37.7,31.8,29.92,WSW,248,9.0,12.0,79,0.00,,,0.01,0,Wunderground v.1.15,2013-03-09 08:56:00,
2013-03-09 02:02:00,37.6,32.0,29.92,SW,229,8.0,10.0,80,0.00,,,0.01,0,Wunderground v.1.15,2013-03-09 09:02:00,
2013-03-09 02:08:00,37.5,31.9,29.92,West,260,8.0,10.0,80,0.00,,,0.01,0,Wunderground v.1.15,2013-03-09 09:08:00,
2013-03-09 02:14:00,37.5,31.9,29.92,West,268,9.0,12.0,80,0.00,,,0.01,0,Wunderground v.1.15,2013-03-09 09:14:00,
2013-03-09 02:20:00,37.1,31.8,29.92,WSW,257,9.0,9.0,81,0.00,,,0.01,0,Wunderground v.1.15,2013-03-09 09:20:00,
2013-03-09 02:26:00,37.1,31.8,29.92,WSW,256,8.0,15.0,81,0.00,,,0.01,0,Wunderground v.1.15,2013-03-09 09:26:00,
2013-03-09 02:32:00,37.3,31.7,29.92,West,265,10.0,12.0,80,0.00,,,0.01,0,Wunderground v.1.15,2013-03-09 09:32:00,
2013-03-09 02:38:00,37.3,31.4,29.92,West,275,10.0,12.0,79,0.00,,,0.01,0,Wunderground v.1.15,2013-03-09 09:38:00,
2013-03-09 02:44:00,37.2,31.0,29.92,West,277,8.0,10.0,78,0.00,,,0.01,0,Wunderground v.1.15,2013-03-09 09:44:00,
2013-03-09 02:50:00,37.3,30.1,29.92,WSW,252,8.0,8.0,75,0.00,,,0.01,0,Wunderground v.1.15,2013-03-09 09:50:00,
2013-03-09 02:56:00,37.3,30.1,29.92,WNW,290,9.0,11.0,75,0.00,,,0.01,0,Wunderground v.1.15,2013-03-09 09:56:00,
2013-03-09 03:02:00,37.3,30.1,29.92,West,267,8.0,13.0,75,0.00,,,0.01,0,Wunderground v.1.15,2013-03-09 10:02:00,
2013-03-09 03:08:00,37.0,29.5,29.92,West,274,7.0,13.0,74,0.00,,,0.01,0,Wunderground v.1.15,2013-03-09 10:08:00,
2013-03-09 03:14:00,37.0,28.5,29.92,WSW,255,8.0,14.0,71,0.00,,,0.01,0,Wunderground v.1.15,2013-03-09 10:14:00,
2013-03-09 03:20:00,37.0,28.1,29.92,WSW,245,9.0,9.0,70,0.00,,,0.01,0,Wunderground v.1.15,2013-03-09 10:20:00,
2013-03-09 03:26:00,37.0,28.5,29.92,WNW,284,6.0,9.0,71,0.00,,,0.01,0,Wunderground v.1.15,2013-03-09 10:26:00,
2013-03-09 03:32:00,36.9,28.4,29.92,WSW,250,5.0,5.0,71,0.00,,,0.01,0,Wunderground v.1.15,2013-03-09 10:32:00,
2013-03-09 03:38:00,36.9,28.7,29.93,West,265,4.0,6.0,72,0.00,,,0.01,0,Wunderground v.1.15,2013-03-09 10:38:00,
2013-03-09 03:44:00,37.0,28.5,29.93,SW,218,3.0,4.0,71,0.00,,,0.01,0,Wunderground v.1.15,2013-03-09 10:44:00,
2013-03-09 03:50:00,36.9,29.4,29.93,WSW,250,2.0,4.0,74,0.00,,,0.01,0,Wunderground v.1.15,2013-03-09 10:50:00,
2013-03-09 03:56:00,36.7,29.2,29.92,SW,232,4.0,4.0,74,0.00,,,0.01,0,Wunderground v.1.15,2013-03-09 10:56:00,
2013-03-09 04:02:00,36.5,30.0,29.92,WSW,250,5.0,5.0,77,0.00,,,0.01,0,Wunderground v.1.15,2013-03-09 11:02:00,
2013-03-09 04:08:00,36.5,30.3,29.93,SW,236,5.0,9.0,78,0.00,,,0.01,0,Wunderground v.1.15,2013-03-09 11:08:00,
2013-03-09 04:14:00,36.2,30.3,29.93,West,259,6.0,7.0,79,0.00,,,0.01,0,Wunderground v.1.15,2013-03-09 11:14:00,
2013-03-09 04:20:00,36.1,29.9,29.93,West,261,7.0,9.0,78,0.00,,,0.01,0,Wunderground v.1.15,2013-03-09 11:20:00,
2013-03-09 04:26:00,36.2,29.7,29.93,WSW,252,9.0,12.0,77,0.00,,,0.01,0,Wunderground v.1.15,2013-03-09 11:26:00,
2013-03-09 04:32:00,36.1,29.9,29.93,WSW,252,9.0,11.0,78,0.00,,,0.01,0,Wunderground v.1.15,2013-03-09 11:32:00,
2013-03-09 04:38:00,36.1,29.6,29.93,WSW,238,11.0,12.0,77,0.00,,,0.01,0,Wunderground v.1.15,2013-03-09 11:38:00,
2013-03-09 04:44:00,35.9,29.4,29.93,West,260,12.0,12.0,77,0.00,,,0.01,0,Wunderground v.1.15,2013-03-09 11:44:00,
2013-03-09 04:50:00,35.9,29.1,29.92,WSW,252,12.0,12.0,76,0.00,,,0.01,0,Wunderground v.1.15,2013-03-09 11:50:00,
2013-03-09 04:56:00,35.8,28.6,29.93,West,261,13.0,13.0,75,0.00,,,0.01,0,Wunderground v.1.15,2013-03-09 11:56:00,
2013-03-09 05:02:00,35.6,28.8,29.93,West,265,11.0,16.0,76,0.00,,,0.01,0,Wunderground v.1.15,2013-03-09 12:02:00,
2013-03-09 05:08:00,35.7,28.6,29.93,West,273,11.0,16.0,75,0.00,,,0.01,0,Wunderground v.1.15,2013-03-09 12:08:00,
2013-03-09 05:14:00,35.7,28.2,29.93,West,263,12.0,16.0,74,0.00,,,0.01,0,Wunderground v.1.15,2013-03-09 12:14:00,
2013-03-09 05:20:00,35.9,28.1,29.93,WSW,252,13.0,13.0,73,0.00,,,0.01,0,Wunderground v.1.15,2013-03-09 12:20:00,
2013-03-09 05:26:00,35.7,27.9,29.93,WSW,242,12.0,16.0,73,0.00,,,0.01,0,Wunderground v.1.15,2013-03-09 12:26:00,
2013-03-09 05:32:00,35.6,28.5,29.93,WSW,238,12.0,14.0,75,0.00,,,0.01,0,Wunderground v.1.15,2013-03-09 12:32:00,
2013-03-09 05:38:00,35.5,28.0,29.94,West,279,11.0,14.0,74,0.00,,,0.01,0,Wunderground v.1.15,2013-03-09 12:38:00,
2013-03-09 05:44:00,35.6,28.1,29.94,West,278,11.0,15.0,74,0.00,,,0.01,0,Wunderground v.1.15,2013-03-09 12:44:00,
2013-03-09 05:50:00,35.5,27.7,29.95,WSW,255,10.0,12.0,73,0.00,,,0.01,0,Wunderground v.1.15,2013-03-09 12:50:00,
2013-03-09 05:56:00,35.6,27.5,29.96,WNW,287,10.0,13.0,72,0.00,,,0.01,0,Wunderground v.1.15,2013-03-09 12:56:00,
2013-03-09 06:02:00,35.7,27.9,29.96,WSW,255,10.0,10.0,73,0.00,,,0.01,0,Wunderground v.1.15,2013-03-09 13:02:00,
2013-03-09 06:08:00,35.5,28.0,29.97,West,275,10.0,11.0,74,0.00,,,0.01,0,Wunderground v.1.15,2013-03-09 13:08:00,
2013-03-09 06:14:00,35.5,28.0,29.97,WSW,244,8.0,9.0,74,0.00,,,0.01,0,Wunderground v.1.15,2013-03-09 13:14:00,
2013-03-09 06:20:00,35.5,28.4,29.97,WSW,254,7.0,7.0,75,0.00,,,0.01,0,Wunderground v.1.15,2013-03-09 13:20:00,
2013-03-09 06:26:00,35.3,28.8,29.97,WSW,245,7.0,8.0,77,0.00,,,0.01,0,Wunderground v.1.15,2013-03-09 13:26:00,
2013-03-09 06:32:00,34.9,29.0,29.97,SW,232,6.0,6.0,79,0.00,,,0.01,0,Wunderground v.1.15,2013-03-09 13:32:00,
2013-03-09 06:38:00,34.4,29.2,29.97,WSW,246,4.0,6.0,81,0.00,,,0.01,5,Wunderground v.1.15,2013-03-09 13:38:00,
2013-03-09 06:44:00,34.2,29.3,29.97,WSW,248,4.0,5.0,82,0.00,,,0.01,9,Wunderground v.1.15,2013-03-09 13:44:00,
2013-03-09 06:50:00,34.2,29.3,29.97,WSW,251,5.0,5.0,82,0.00,,,0.01,14,Wunderground v.1.15,2013-03-09 13:50:00,
2013-03-09 06:56:00,34.6,29.7,29.97,West,277,6.0,9.0,82,0.00,,,0.01,18,Wunderground v.1.15,2013-03-09 13:56:00,
2013-03-09 07:02:00,35.0,29.8,29.98,WSW,249,6.0,6.0,81,0.00,,,0.01,25,Wunderground v.1.15,2013-03-09 14:02:00,
2013-03-09 07:08:00,35.3,30.1,29.97,WSW,254,6.0,7.0,81,0.00,,,0.01,39,Wunderground v.1.15,2013-03-09 14:08:00,
2013-03-09 07:14:00,35.7,30.1,29.98,WSW,244,7.0,7.0,80,0.00,,,0.01,56,Wunderground v.1.15,2013-03-09 14:14:00,
2013-03-09 07:20:00,36.0,30.4,29.98,WSW,242,7.0,7.0,80,0.00,,,0.01,77,Wunderground v.1.15,2013-03-09 14:20:00,
2013-03-09 07:26:00,36.3,30.4,29.98,West,261,6.0,9.0,79,0.00,,,0.01,109,Wunderground v.1.15,2013-03-09 14:26:00,
2013-03-09 07:32:00,36.5,30.6,29.99,WSW,250,7.0,7.0,79,0.00,,,0.01,137,Wunderground v.1.15,2013-03-09 14:32:00,
2013-03-09 07:38:00,36.7,30.8,29.99,SW,219,7.0,7.0,79,0.00,,,0.01,169,Wunderground v.1.15,2013-03-09 14:38:00,
2013-03-09 07:44:00,37.0,31.1,29.99,WSW,248,7.0,9.0,79,0.00,,,0.01,190,Wunderground v.1.15,2013-03-09 14:44:00,
2013-03-09 07:50:00,36.9,30.7,29.99,WSW,250,8.0,8.0,78,0.00,,,0.01,216,Wunderground v.1.15,2013-03-09 14:50:00,
2013-03-09 07:56:00,37.1,30.9,29.99,WSW,246,9.0,13.0,78,0.00,,,0.01,236,Wunderground v.1.15,2013-03-09 14:56:00,
2013-03-09 08:02:00,37.4,30.5,29.99,WSW,251,10.0,10.0,76,0.00,,,0.01,258,Wunderground v.1.15,2013-03-09 15:02:00,
2013-03-09 08:08:00,37.9,30.7,29.99,SW,223,9.0,10.0,75,0.00,,,0.01,283,Wunderground v.1.15,2013-03-09 15:08:00,
2013-03-09 08:14:00,38.3,30.4,29.99,WSW,238,9.0,11.0,73,0.00,,,0.01,343,Wunderground v.1.15,2013-03-09 15:14:00,
2013-03-09 08:20:00,38.7,30.8,29.99,SW,228,10.0,13.0,73,0.00,,,0.01,373,Wunderground v.1.15,2013-03-09 15:20:00,
2013-03-09 08:26:00,38.8,30.5,30.00,WSW,242,10.0,13.0,72,0.00,,,0.01,387,Wunderground v.1.15,2013-03-09 15:26:00,
2013-03-09 08:32:00,39.1,30.5,30.00,WSW,244,9.0,11.0,71,0.00,,,0.01,406,Wunderground v.1.15,2013-03-09 15:32:00,
2013-03-09 08:38:00,39.5,30.5,30.00,West,275,8.0,11.0,70,0.00,,,0.01,425,Wunderground v.1.15,2013-03-09 15:38:00,
2013-03-09 08:44:00,40.1,30.7,30.01,WSW,253,7.0,10.0,69,0.00,,,0.01,487,Wunderground v.1.15,2013-03-09 15:44:00,
2013-03-09 08:50:00,39.8,30.1,30.01,West,267,7.0,7.0,68,0.00,,,0.01,596,Wunderground v.1.15,2013-03-09 15:50:00,
2013-03-09 08:56:00,39.4,29.7,30.02,WSW,253,8.0,14.0,68,0.00,,,0.01,179,Wunderground v.1.15,2013-03-09 15:56:00,
2013-03-09 09:02:00,39.1,29.8,30.01,WSW,255,10.0,12.0,69,0.00,,,0.01,193,Wunderground v.1.15,2013-03-09 16:02:00,
2013-03-09 09:08:00,39.1,29.8,30.01,WSW,242,10.0,12.0,69,0.00,,,0.01,239,Wunderground v.1.15,2013-03-09 16:08:00,
2013-03-09 09:14:00,39.6,29.9,30.01,SW,236,9.0,11.0,68,0.00,,,0.01,390,Wunderground v.1.15,2013-03-09 16:14:00,
2013-03-09 09:20:00,40.5,31.1,30.01,WSW,248,11.0,12.0,69,0.00,,,0.01,617,Wunderground v.1.15,2013-03-09 16:20:00,
2013-03-09 09:26:00,40.7,30.2,30.01,WSW,246,11.0,13.0,66,0.00,,,0.01,647,Wunderground v.1.15,2013-03-09 16:26:00,
2013-03-09 09:32:00,41.1,31.0,30.01,SW,236,11.0,12.0,67,0.00,,,0.01,763,Wunderground v.1.15,2013-03-09 16:32:00,
2013-03-09 09:38:00,41.6,31.1,30.02,WSW,252,11.0,13.0,66,0.00,,,0.01,754,Wunderground v.1.15,2013-03-09 16:38:00,
2013-03-09 09:44:00,41.9,30.6,30.02,West,277,11.0,11.0,64,0.00,,,0.01,800,Wunderground v.1.15,2013-03-09 16:44:00,
2013-03-09 09:50:00,42.0,31.1,30.01,West,275,9.0,9.0,65,0.00,,,0.01,821,Wunderground v.1.15,2013-03-09 16:50:00,
2013-03-09 09:56:00,41.8,29.7,30.02,WSW,246,10.0,10.0,62,0.00,,,0.01,362,Wunderground v.1.15,2013-03-09 16:56:00,
2013-03-09 10:02:00,42.4,30.7,30.02,WSW,240,10.0,11.0,63,0.00,,,0.01,271,Wunderground v.1.15,2013-03-09 17:02:00,
2013-03-09 10:08:00,42.8,31.5,30.02,West,261,10.0,11.0,64,0.00,,,0.01,1011,Wunderground v.1.15,2013-03-09 17:08:00,
2013-03-09 10:14:00,43.0,30.5,30.02,WSW,238,8.0,10.0,61,0.00,,,0.01,338,Wunderground v.1.15,2013-03-09 17:14:00,
2013-03-09 10:20:00,43.1,29.7,30.02,WSW,250,7.0,11.0,59,0.00,,,0.01,958,Wunderground v.1.15,2013-03-09 17:20:00,
2013-03-09 10:26:00,43.5,30.9,30.02,West,263,9.0,11.0,61,0.00,,,0.01,947,Wunderground v.1.15,2013-03-09 17:26:00,
2013-03-09 10:32:00,43.9,30.5,30.02,WSW,248,8.0,10.0,59,0.00,,,0.01,947,Wunderground v.1.15,2013-03-09 17:32:00,
2013-03-09 10:38:00,43.5,29.7,30.02,SSW,203,7.0,10.0,58,0.00,,,0.01,327,Wunderground v.1.15,2013-03-09 17:38:00,
2013-03-09 10:44:00,44.1,30.3,30.02,SW,231,6.0,8.0,58,0.00,,,0.01,341,Wunderground v.1.15,2013-03-09 17:44:00,
2013-03-09 10:50:00,44.1,29.4,30.02,WSW,248,7.0,7.0,56,0.00,,,0.01,369,Wunderground v.1.15,2013-03-09 17:50:00,
2013-03-09 10:56:00,44.3,30.0,30.02,West,263,7.0,12.0,57,0.00,,,0.01,353,Wunderground v.1.15,2013-03-09 17:56:00,
2013-03-09 11:02:00,43.6,28.0,30.02,SW,231,7.0,7.0,54,0.00,,,0.01,380,Wunderground v.1.15,2013-03-09 18:02:00,
2013-03-09 11:08:00,44.0,29.3,30.02,WNW,301,7.0,9.0,56,0.00,,,0.01,308,Wunderground v.1.15,2013-03-09 18:08:00,
2013-03-09 11:14:00,43.6,28.5,30.02,WSW,249,7.0,9.0,55,0.00,,,0.01,304,Wunderground v.1.15,2013-03-09 18:14:00,
2013-03-09 11:20:00,43.3,27.3,30.02,West,265,7.0,7.0,53,0.00,,,0.01,325,Wunderground v.1.15,2013-03-09 18:20:00,
2013-03-09 11:26:00,43.8,27.3,30.02,NW,306,8.0,10.0,52,0.00,,,0.01,376,Wunderground v.1.15,2013-03-09 18:26:00,
2013-03-09 11:32:00,44.0,28.0,30.03,NNW,329,9.0,10.0,53,0.00,,,0.01,362,Wunderground v.1.15,2013-03-09 18:32:00,
2013-03-09 11:38:00,44.4,28.3,30.02,WNW,284,8.0,10.0,53,0.00,,,0.01,309,Wunderground v.1.15,2013-03-09 18:38:00,
2013-03-09 11:44:00,44.2,27.2,30.02,WNW,302,8.0,12.0,51,0.00,,,0.01,272,Wunderground v.1.15,2013-03-09 18:44:00,
2013-03-09 11:50:00,44.3,28.2,30.02,WNW,303,10.0,11.0,53,0.00,,,0.01,392,Wunderground v.1.15,2013-03-09 18:50:00,
2013-03-09 11:56:00,44.4,28.3,30.02,NW,316,10.0,11.0,53,0.00,,,0.01,352,Wunderground v.1.15,2013-03-09 18:56:00,
2013-03-09 12:02:00,44.4,28.8,30.02,WNW,292,9.0,9.0,54,0.00,,,0.01,371,Wunderground v.1.15,2013-03-09 19:02:00,
2013-03-09 12:08:00,45.1,28.5,30.02,NW,312,9.0,10.0,52,0.00,,,0.01,381,Wunderground v.1.15,2013-03-09 19:08:00,
2013-03-09 12:14:00,44.5,29.3,30.02,West,276,9.0,11.0,55,0.00,,,0.01,241,Wunderground v.1.15,2013-03-09 19:14:00,
2013-03-09 12:20:00,44.0,30.6,30.02,WSW,246,9.0,9.0,59,0.00,,,0.01,169,Wunderground v.1.15,2013-03-09 19:20:00,
2013-03-09 12:26:00,42.2,32.4,30.03,WSW,240,9.0,10.0,68,0.00,,,0.01,348,Wunderground v.1.15,2013-03-09 19:26:00,
2013-03-09 12:32:00,42.0,32.2,30.02,West,271,6.0,7.0,68,0.00,,,0.01,494,Wunderground v.1.15,2013-03-09 19:32:00,
2013-03-09 12:38:00,43.1,32.1,30.02,WNW,303,5.0,7.0,65,0.00,,,0.01,352,Wunderground v.1.15,2013-03-09 19:38:00,
2013-03-09 12:44:00,43.7,33.1,30.02,NW,319,8.0,10.0,66,0.00,,,0.01,457,Wunderground v.1.15,2013-03-09 19:44:00,
2013-03-09 12:50:00,43.4,33.2,30.02,NW,311,10.0,10.0,67,0.00,,,0.01,394,Wunderground v.1.15,2013-03-09 19:50:00,
2013-03-09 12:56:00,43.6,32.6,30.02,NW,314,8.0,11.0,65,0.00,,,0.01,315,Wunderground v.1.15,2013-03-09 19:56:00,
2013-03-09 13:02:00,43.2,32.6,30.02,WNW,303,8.0,9.0,66,0.00,,,0.01,183,Wunderground v.1.15,2013-03-09 20:02:00,
2013-03-09 13:08:00,41.0,31.6,30.02,WSW,252,8.0,9.0,69,0.00,,,0.02,169,Wunderground v.1.15,2013-03-09 20:08:00,
2013-03-09 13:14:00,40.1,32.8,30.01,SW,230,4.0,7.0,75,0.00,,,0.02,418,Wunderground v.1.15,2013-03-09 20:14:00,
2013-03-09 13:20:00,41.3,33.3,30.01,NW,304,4.0,10.0,73,0.04,,,0.03,139,Wunderground v.1.15,2013-03-09 20:20:00,
2013-03-09 13:26:00,40.4,31.4,30.01,SW,229,6.0,10.0,70,0.04,,,0.03,91,Wunderground v.1.15,2013-03-09 20:26:00,
2013-03-09 13:32:00,39.4,32.1,30.01,WSW,241,4.0,5.0,75,0.05,,,0.04,93,Wunderground v.1.15,2013-03-09 20:32:00,
2013-03-09 13:38:00,39.6,33.3,30.01,West,260,5.0,5.0,78,0.12,,,0.05,183,Wunderground v.1.15,2013-03-09 20:38:00,
2013-03-09 13:44:00,40.5,33.2,30.01,West,265,5.0,5.0,75,0.11,,,0.06,125,Wunderground v.1.15,2013-03-09 20:44:00,
2013-03-09 13:50:00,41.6,33.6,30.00,WNW,292,6.0,7.0,73,0.05,,,0.06,107,Wunderground v.1.15,2013-03-09 20:50:00,
2013-03-09 13:56:00,41.9,33.2,30.00,West,273,7.0,7.0,71,0.05,,,0.07,155,Wunderground v.1.15,2013-03-09 20:56:00,
2013-03-09 14:02:00,42.9,33.4,30.00,West,275,7.0,9.0,69,0.06,,,0.08,294,Wunderground v.1.15,2013-03-09 21:02:00,
2013-03-09 14:08:00,44.8,34.5,30.00,WNW,285,8.0,11.0,67,0.06,,,0.08,842,Wunderground v.1.15,2013-03-09 21:08:00,
2013-03-09 14:14:00,45.6,33.7,29.99,NW,309,11.0,19.0,63,0.05,,,0.08,882,Wunderground v.1.15,2013-03-09 21:14:00,
2013-03-09 14:20:00,45.9,34.0,29.99,WNW,300,13.0,14.0,63,0.00,,,0.08,575,Wunderground v.1.15,2013-03-09 21:20:00,
2013-03-09 14:26:00,45.6,32.9,29.99,WNW,300,13.0,16.0,61,0.00,,,0.09,807,Wunderground v.1.15,2013-03-09 21:26:00,
2013-03-09 14:32:00,46.1,33.0,30.00,West,278,12.0,12.0,60,0.00,,,0.09,874,Wunderground v.1.15,2013-03-09 21:32:00,
2013-03-09 14:38:00,45.3,32.2,30.00,WNW,294,12.0,13.0,60,0.00,,,0.09,824,Wunderground v.1.15,2013-03-09 21:38:00,
2013-03-09 14:44:00,45.7,33.0,30.00,WNW,297,13.0,13.0,61,0.00,,,0.09,162,Wunderground v.1.15,2013-03-09 21:44:00,
2013-03-09 14:50:00,44.2,32.4,30.00,WNW,296,13.0,13.0,63,0.00,,,0.09,248,Wunderground v.1.15,2013-03-09 21:50:00,
2013-03-09 14:56:00,44.5,33.5,30.00,WNW,291,13.0,14.0,65,0.00,,,0.09,812,Wunderground v.1.15,2013-03-09 21:56:00,
2013-03-09 15:02:00,44.2,35.0,30.00,NW,306,12.0,12.0,70,0.00,,,0.09,773,Wunderground v.1.15,2013-03-09 22:02:00,
2013-03-09 15:08:00,45.0,34.3,30.01,NW,305,12.0,16.0,66,0.00,,,0.09,728,Wunderground v.1.15,2013-03-09 22:08:00,
2013-03-09 15:14:00,44.4,34.5,30.01,NW,306,12.0,14.0,68,0.00,,,0.09,167,Wunderground v.1.15,2013-03-09 22:14:00,
2013-03-09 15:20:00,44.8,34.1,30.02,NW,307,13.0,15.0,66,0.00,,,0.09,701,Wunderground v.1.15,2013-03-09 22:20:00,
2013-03-09 15:26:00,44.9,32.7,30.02,WNW,290,13.0,16.0,62,0.00,,,0.09,668,Wunderground v.1.15,2013-03-09 22:26:00,
2013-03-09 15:32:00,44.7,32.9,30.02,West,279,13.0,13.0,63,0.00,,,0.09,675,Wunderground v.1.15,2013-03-09 22:32:00,
2013-03-09 15:38:00,45.1,33.2,30.02,WNW,296,12.0,15.0,63,0.00,,,0.09,747,Wunderground v.1.15,2013-03-09 22:38:00,
2013-03-09 15:44:00,45.4,33.1,30.02,NW,316,13.0,19.0,62,0.00,,,0.09,663,Wunderground v.1.15,2013-03-09 22:44:00,
2013-03-09 15:50:00,45.5,33.2,30.02,WNW,293,13.0,13.0,62,0.00,,,0.09,596,Wunderground v.1.15,2013-03-09 22:50:00,
2013-03-09 15:56:00,45.4,33.5,30.02,NW,305,11.0,13.0,63,0.00,,,0.09,612,Wunderground v.1.15,2013-03-09 22:56:00,
2013-03-09 16:02:00,44.6,33.2,30.02,NW,314,11.0,12.0,64,0.00,,,0.09,169,Wunderground v.1.15,2013-03-09 23:02:00,
2013-03-09 16:08:00,44.6,33.6,30.03,WNW,286,11.0,12.0,65,0.00,,,0.09,594,Wunderground v.1.15,2013-03-09 23:08:00,
2013-03-09 16:14:00,44.5,33.5,30.03,WNW,293,10.0,14.0,65,0.00,,,0.09,548,Wunderground v.1.15,2013-03-09 23:14:00,
2013-03-09 16:20:00,44.7,32.9,30.03,NNW,331,11.0,11.0,63,0.00,,,0.09,526,Wunderground v.1.15,2013-03-09 23:20:00,
2013-03-09 16:26:00,44.8,33.0,30.03,WNW,294,12.0,12.0,63,0.00,,,0.09,473,Wunderground v.1.15,2013-03-09 23:26:00,
2013-03-09 16:32:00,44.3,32.5,30.03,NW,318,10.0,12.0,63,0.00,,,0.09,483,Wunderground v.1.15,2013-03-09 23:32:00,
2013-03-09 16:38:00,44.5,32.3,30.03,WNW,301,11.0,13.0,62,0.00,,,0.09,269,Wunderground v.1.15,2013-03-09 23:38:00,
2013-03-09 16:44:00,44.2,31.6,30.04,WNW,292,11.0,14.0,61,0.00,,,0.09,142,Wunderground v.1.15,2013-03-09 23:44:00,
2013-03-09 16:50:00,44.3,32.5,30.04,NW,309,11.0,11.0,63,0.00,,,0.09,397,Wunderground v.1.15,2013-03-09 23:50:00,
2013-03-09 16:56:00,44.7,32.5,30.04,NW,311,10.0,12.0,62,0.00,,,0.09,308,Wunderground v.1.15,2013-03-09 23:56:00,
2013-03-09 17:02:00,44.5,32.3,30.04,WNW,289,10.0,11.0,62,0.00,,,0.09,318,Wunderground v.1.15,2013-03-10 00:02:00,
2013-03-09 17:08:00,44.3,30.9,30.04,West,277,11.0,11.0,59,0.00,,,0.09,255,Wunderground v.1.15,2013-03-10 00:08:00,
2013-03-09 17:14:00,43.8,31.6,30.05,WNW,283,10.0,10.0,62,0.00,,,0.09,209,Wunderground v.1.15,2013-03-10 00:14:00,
2013-03-09 17:20:00,43.7,32.3,30.05,West,275,8.0,8.0,64,0.00,,,0.09,134,Wunderground v.1.15,2013-03-10 00:20:00,
2013-03-09 17:26:00,44.4,31.8,30.05,West,277,9.0,11.0,61,0.00,,,0.09,209,Wunderground v.1.15,2013-03-10 00:26:00,
2013-03-09 17:32:00,44.5,31.9,30.05,West,281,9.0,13.0,61,0.00,,,0.09,163,Wunderground v.1.15,2013-03-10 00:32:00,
2013-03-09 17:38:00,43.9,31.7,30.05,WNW,296,9.0,13.0,62,0.00,,,0.09,67,Wunderground v.1.15,2013-03-10 00:38:00,
2013-03-09 17:44:00,43.5,31.7,30.05,WNW,294,9.0,13.0,63,0.00,,,0.09,111,Wunderground v.1.15,2013-03-10 00:44:00,
2013-03-09 17:50:00,43.0,31.6,30.05,West,281,10.0,10.0,64,0.00,,,0.09,90,Wunderground v.1.15,2013-03-10 00:50:00,
2013-03-09 17:56:00,42.8,31.8,30.06,WNW,288,8.0,11.0,65,0.00,,,0.09,74,Wunderground v.1.15,2013-03-10 00:56:00,
2013-03-09 18:02:00,42.2,31.3,30.06,WNW,298,9.0,13.0,65,0.00,,,0.09,47,Wunderground v.1.15,2013-03-10 01:02:00,
2013-03-09 18:08:00,41.6,31.8,30.06,NW,323,9.0,13.0,68,0.00,,,0.09,37,Wunderground v.1.15,2013-03-10 01:08:00,
2013-03-09 18:14:00,41.3,32.2,30.07,NW,315,8.0,9.0,70,0.00,,,0.09,18,Wunderground v.1.15,2013-03-10 01:14:00,
2013-03-09 18:20:00,41.0,32.7,30.07,NW,324,6.0,6.0,72,0.00,,,0.09,7,Wunderground v.1.15,2013-03-10 01:20:00,
2013-03-09 18:26:00,40.7,32.4,30.07,NNW,340,4.0,6.0,72,0.00,,,0.09,5,Wunderground v.1.15,2013-03-10 01:26:00,
2013-03-09 18:32:00,40.6,32.6,30.07,NNE,29,4.0,5.0,73,0.00,,,0.09,0,Wunderground v.1.15,2013-03-10 01:32:00,
2013-03-09 18:38:00,40.5,32.5,30.08,NNW,342,4.0,6.0,73,0.00,,,0.09,0,Wunderground v.1.15,2013-03-10 01:38:00,
2013-03-09 18:44:00,40.3,31.6,30.08,NNW,327,4.0,5.0,71,0.00,,,0.09,0,Wunderground v.1.15,2013-03-10 01:44:00,
2013-03-09 18:50:00,40.0,32.0,30.09,NW,325,4.0,4.0,73,0.00,,,0.09,0,Wunderground v.1.15,2013-03-10 01:50:00,
2013-03-09 18:56:00,39.7,32.1,30.09,NW,305,3.0,4.0,74,0.00,,,0.09,0,Wunderground v.1.15,2013-03-10 01:56:00,
2013-03-09 19:02:00,39.4,32.1,30.09,NW,304,1.0,2.0,75,0.00,,,0.09,0,Wunderground v.1.15,2013-03-10 02:02:00,
2013-03-09 19:08:00,39.2,31.9,30.09,NW,304,1.0,2.0,75,0.00,,,0.09,0,Wunderground v.1.15,2013-03-10 02:08:00,
2013-03-09 19:16:00,39.0,32.1,30.09,WNW,290,1.0,2.0,76,0.00,,,0.09,0,Wunderground v.1.15,2013-03-10 02:16:00,
2013-03-09 19:22:00,38.9,32.3,30.09,West,277,2.0,5.0,77,0.00,,,0.09,0,Wunderground v.1.15,2013-03-10 02:22:00,
2013-03-09 19:28:00,38.8,32.2,30.09,West,276,4.0,5.0,77,0.00,,,0.09,0,Wunderground v.1.15,2013-03-10 02:28:00,
2013-03-09 19:34:00,38.9,32.3,30.09,WNW,284,4.0,6.0,77,0.00,,,0.09,0,Wunderground v.1.15,2013-03-10 02:34:00,
2013-03-09 19:40:00,39.1,32.2,30.09,WNW,284,6.0,8.0,76,0.00,,,0.09,0,Wunderground v.1.15,2013-03-10 02:40:00,
2013-03-09 19:46:00,39.2,32.3,30.09,West,272,7.0,8.0,76,0.00,,,0.09,0,Wunderground v.1.15,2013-03-10 02:46:00,
2013-03-09 19:52:00,39.2,32.3,30.09,West,280,7.0,8.0,76,0.00,,,0.09,0,Wunderground v.1.15,2013-03-10 02:52:00,
2013-03-09 19:58:00,39.2,32.6,30.10,WNW,296,7.0,8.0,77,0.00,,,0.09,0,Wunderground v.1.15,2013-03-10 02:58:00,
2013-03-09 20:04:00,39.3,32.4,30.10,WNW,295,7.0,9.0,76,0.00,,,0.09,0,Wunderground v.1.15,2013-03-10 03:04:00,
2013-03-09 20:10:00,39.3,32.4,30.10,West,278,8.0,9.0,76,0.00,,,0.09,0,Wunderground v.1.15,2013-03-10 03:10:00,
2013-03-09 20:16:00,39.2,32.6,30.10,WNW,290,7.0,9.0,77,0.00,,,0.09,0,Wunderground v.1.15,2013-03-10 03:16:00,
2013-03-09 20:22:00,39.3,32.7,30.10,WNW,302,8.0,9.0,77,0.00,,,0.09,0,Wunderground v.1.15,2013-03-10 03:22:00,
2013-03-09 20:28:00,39.2,32.6,30.10,WNW,295,8.0,11.0,77,0.00,,,0.09,0,Wunderground v.1.15,2013-03-10 03:28:00,
2013-03-09 20:34:00,39.1,32.8,30.10,WNW,291,7.0,10.0,78,0.00,,,0.09,0,Wunderground v.1.15,2013-03-10 03:34:00,
2013-03-09 20:40:00,39.0,32.7,30.10,WNW,291,8.0,8.0,78,0.00,,,0.09,0,Wunderground v.1.15,2013-03-10 03:40:00,
2013-03-09 20:46:00,39.0,32.7,30.10,WNW,292,8.0,8.0,78,0.00,,,0.09,0,Wunderground v.1.15,2013-03-10 03:46:00,
2013-03-09 20:52:00,39.0,32.7,30.10,WNW,291,8.0,8.0,78,0.00,,,0.09,0,Wunderground v.1.15,2013-03-10 03:52:00,
2013-03-09 20:58:00,38.9,32.6,30.10,NW,304,7.0,8.0,78,0.00,,,0.09,0,Wunderground v.1.15,2013-03-10 03:58:00,
2013-03-09 21:04:00,38.9,32.6,30.10,NW,309,7.0,7.0,78,0.00,,,0.09,0,Wunderground v.1.15,2013-03-10 04:04:00,
2013-03-09 21:10:00,38.8,32.5,30.10,WNW,296,6.0,6.0,78,0.00,,,0.09,0,Wunderground v.1.15,2013-03-10 04:10:00,
2013-03-09 21:16:00,38.7,32.7,30.11,NNW,327,6.0,9.0,79,0.00,,,0.09,0,Wunderground v.1.15,2013-03-10 04:16:00,
2013-03-09 21:22:00,38.8,32.8,30.11,NW,306,7.0,11.0,79,0.00,,,0.09,0,Wunderground v.1.15,2013-03-10 04:22:00,
2013-03-09 21:28:00,38.9,32.9,30.10,NW,323,8.0,11.0,79,0.00,,,0.09,0,Wunderground v.1.15,2013-03-10 04:28:00,
2013-03-09 21:34:00,39.0,33.0,30.11,NW,309,7.0,10.0,79,0.00,,,0.09,0,Wunderground v.1.15,2013-03-10 04:34:00,
2013-03-09 21:40:00,38.8,32.8,30.11,NW,321,6.0,6.0,79,0.00,,,0.09,0,Wunderground v.1.15,2013-03-10 04:40:00,
2013-03-09 21:46:00,38.7,32.7,30.11,WNW,296,4.0,6.0,79,0.00,,,0.09,0,Wunderground v.1.15,2013-03-10 04:46:00,
2013-03-09 21:52:00,38.6,33.0,30.11,WNW,301,2.0,3.0,80,0.00,,,0.09,0,Wunderground v.1.15,2013-03-10 04:52:00,
2013-03-09 21:58:00,38.6,33.3,30.11,WNW,297,1.0,3.0,81,0.00,,,0.09,0,Wunderground v.1.15,2013-03-10 04:58:00,
2013-03-09 22:00:00,38.6,33.3,30.11,NW,308,1.0,3.0,81,0.00,,,0.09,0,Wunderground v.1.15,2013-03-10 05:00:00,
2013-03-09 22:02:00,38.6,33.3,30.11,NW,316,1.0,3.0,81,0.00,,,0.09,0,Wunderground v.1.15,2013-03-10 05:02:00,
2013-03-09 22:04:00,38.6,33.3,30.11,West,269,1.0,3.0,81,0.00,,,0.09,0,Wunderground v.1.15,2013-03-10 05:04:00,
2013-03-09 22:06:00,38.6,33.0,30.11,WNW,301,2.0,3.0,80,0.00,,,0.09,0,Wunderground v.1.15,2013-03-10 05:06:00,
2013-03-09 22:12:00,38.5,33.2,30.11,SSW,195,2.0,3.0,81,0.00,,,0.09,0,Wunderground v.1.15,2013-03-10 05:12:00,
2013-03-09 22:18:00,38.4,32.8,30.11,WSW,242,2.0,3.0,80,0.00,,,0.09,0,Wunderground v.1.15,2013-03-10 05:18:00,
2013-03-09 22:24:00,38.3,32.7,30.11,South,171,2.0,3.0,80,0.00,,,0.09,0,Wunderground v.1.15,2013-03-10 05:24:00,
2013-03-09 22:30:00,38.5,32.9,30.12,SE,144,2.0,2.0,80,0.00,,,0.09,0,Wunderground v.1.15,2013-03-10 05:30:00,
2013-03-09 22:36:00,38.5,32.9,30.12,NNW,334,1.0,2.0,80,0.00,,,0.09,0,Wunderground v.1.15,2013-03-10 05:36:00,
2013-03-09 22:42:00,38.3,33.0,30.12,WNW,298,1.0,3.0,81,0.00,,,0.09,0,Wunderground v.1.15,2013-03-10 05:42:00,
2013-03-09 22:48:00,38.1,33.1,30.12,NW,307,2.0,3.0,82,0.00,,,0.09,0,Wunderground v.1.15,2013-03-10 05:48:00,
2013-03-09 22:54:00,38.0,33.0,30.12,WNW,292,2.0,3.0,82,0.00,,,0.09,0,Wunderground v.1.15,2013-03-10 05:54:00,
2013-03-09 23:00:00,37.7,33.0,30.12,WNW,292,2.0,2.0,83,0.00,,,0.09,0,Wunderground v.1.15,2013-03-10 06:00:00,
2013-03-09 23:06:00,37.6,32.9,30.12,WNW,292,2.0,3.0,83,0.00,,,0.09,0,Wunderground v.1.15,2013-03-10 06:06:00,
2013-03-09 23:12:00,37.4,33.0,30.12,North,360,1.0,1.0,84,0.00,,,0.09,0,Wunderground v.1.15,2013-03-10 06:12:00,
2013-03-09 23:18:00,37.4,32.7,30.12,North,360,0.0,1.0,83,0.00,,,0.09,0,Wunderground v.1.15,2013-03-10 06:18:00,
2013-03-09 23:24:00,37.5,32.8,30.11,North,355,0.0,2.0,83,0.00,,,0.09,0,Wunderground v.1.15,2013-03-10 06:24:00,
2013-03-09 23:30:00,37.3,32.9,30.11,NW,306,1.0,2.0,84,0.00,,,0.09,0,Wunderground v.1.15,2013-03-10 06:30:00,
2013-03-09 23:36:00,37.0,32.6,30.11,WNW,287,2.0,2.0,84,0.00,,,0.09,0,Wunderground v.1.15,2013-03-10 06:36:00,
2013-03-09 23:42:00,36.7,32.3,30.11,West,278,2.0,3.0,84,0.00,,,0.09,0,Wunderground v.1.15,2013-03-10 06:42:00,
2013-03-09 23:48:00,36.5,32.4,30.11,West,278,2.0,3.0,85,0.00,,,0.09,0,Wunderground v.1.15,2013-03-10 06:48:00,
2013-03-09 23:54:00,36.4,32.3,30.11,West,277,3.0,4.0,85,0.00,,,0.09,0,Wunderground v.1.15,2013-03-10 06:54:00,